»·PEaware :: N130LM KHRL-KMAF

N130LM :: KHRL-KMAF

FLIGHT INFORMATION

Flight Status: Arrived
Operator: Privately registered:
United States
More flights under this callsign
Pilot: Justin M. (19723)
Aircraft: DASSAULT AVIATION FALCON 50
(FA50)
More flights by this aircraft type
Origin: KHRL Valley Intl
United States
Destination: KMAF Midland Intl
United States
More flights between these airports :: More routes between these airports
Route: +LRD
File this flight plan on PilotEdge
Remarks:
Altitude:
(Current/Filed)
380ft
Speed:
(Current/Filed)
0kts
Departed: 17-Mar-20 11:05 AM
Arrived: 17-Mar-20 12:06 PM
Distance/Time
Traveled:
418nm/1:01
Distance/Time
To Go:
Arrived

Flight Plot

Page will automatically refresh every two minutes.

Flight plan parsing failed; only flown route is shown


Map Options




Map Legend


Flown Route
Filed Route
Departure Airport
Arrival Airport
Navaid (VOR, NDB)
Fix

Horizontal Profiles

Position Reports

Time Latitude Longitude Heading Altitude Ground
Speed
17-Mar-20 11:03 26.260736 -97.711026 334 5516ft 267kts
17-Mar-20 11:04 26.329849 -97.753933 308 8162ft 307kts
17-Mar-20 11:05 26.382721 -97.831898 306 10578ft 329kts
17-Mar-20 11:06 26.440240 -97.914229 307 12654ft 339kts
17-Mar-20 11:07 26.499150 -97.998187 306 14364ft 347kts
17-Mar-20 11:08 26.559107 -98.083771 305 15841ft 353kts
17-Mar-20 11:09 26.620784 -98.170920 305 17117ft 359kts
17-Mar-20 11:10 26.690637 -98.251647 324 18201ft 370kts
17-Mar-20 11:11 26.779641 -98.312286 323 19500ft 386kts
17-Mar-20 11:12 26.870698 -98.377954 323 22829ft 400kts
17-Mar-20 11:13 26.966781 -98.446541 323 25370ft 419kts
17-Mar-20 11:14 27.067432 -98.518316 323 27477ft 436kts
17-Mar-20 11:15 27.169914 -98.591488 323 29664ft 440kts
17-Mar-20 11:16 27.271254 -98.663995 321 31967ft 436kts
17-Mar-20 11:17 27.372504 -98.736643 321 34208ft 431kts
17-Mar-20 11:18 27.472468 -98.808482 319 36551ft 420kts
17-Mar-20 11:19 27.571774 -98.880207 319 37837ft 432kts
17-Mar-20 11:20 27.676184 -98.955821 319 38073ft 462kts
17-Mar-20 11:21 27.787582 -99.036463 320 38061ft 484kts
17-Mar-20 11:22 27.902211 -99.119565 320 38049ft 491kts
17-Mar-20 11:23 28.017397 -99.203331 319 38049ft 491kts
17-Mar-20 11:24 28.123631 -99.280845 319 38037ft 492kts
17-Mar-20 11:25 28.238924 -99.365157 319 38042ft 492kts
17-Mar-20 11:26 28.353856 -99.449439 319 38048ft 492kts
17-Mar-20 11:27 28.469002 -99.534107 319 38048ft 492kts
17-Mar-20 11:28 28.583480 -99.618504 319 38048ft 492kts
17-Mar-20 11:29 28.698253 -99.703337 319 38077ft 491kts
17-Mar-20 11:30 28.797945 -99.777213 318 38117ft 491kts
17-Mar-20 11:31 28.902008 -99.854509 319 38124ft 491kts
17-Mar-20 11:32 29.015925 -99.939332 318 38102ft 489kts
17-Mar-20 11:33 29.130304 -100.024759 318 38067ft 492kts
17-Mar-20 11:34 29.245265 -100.110833 318 38049ft 493kts
17-Mar-20 11:35 29.360037 -100.196974 318 38098ft 492kts
17-Mar-20 11:36 29.474336 -100.283017 318 38171ft 490kts
17-Mar-20 11:37 29.588177 -100.368973 318 38171ft 492kts
17-Mar-20 11:38 29.702498 -100.455506 318 38170ft 492kts
17-Mar-20 11:39 29.816799 -100.542267 318 38171ft 492kts
17-Mar-20 11:40 29.930686 -100.628972 318 38171ft 493kts
17-Mar-20 11:41 30.045029 -100.716231 317 38165ft 492kts
17-Mar-20 11:42 30.159435 -100.803819 317 38144ft 493kts
17-Mar-20 11:43 30.273910 -100.891702 317 38132ft 493kts
17-Mar-20 11:44 30.388443 -100.979884 318 38119ft 495kts
17-Mar-20 11:45 30.503032 -101.068347 318 38035ft 495kts
17-Mar-20 11:46 30.617613 -101.157095 318 36604ft 498kts
17-Mar-20 11:47 30.733525 -101.247153 318 34606ft 505kts
17-Mar-20 11:48 30.850547 -101.338280 319 32624ft 508kts
17-Mar-20 11:49 30.967265 -101.429388 319 30633ft 499kts
17-Mar-20 11:50 31.080720 -101.518187 320 28614ft 480kts
17-Mar-20 11:51 31.187972 -101.602460 320 26473ft 463kts
17-Mar-20 11:52 31.291899 -101.684337 321 23944ft 441kts
17-Mar-20 11:53 31.391414 -101.762969 321 21446ft 423kts
17-Mar-20 11:54 31.486687 -101.838429 321 18950ft 406kts
17-Mar-20 11:55 31.578399 -101.911236 322 16448ft 393kts
17-Mar-20 11:56 31.667905 -101.982471 322 13944ft 384kts
17-Mar-20 11:57 31.759765 -102.035620 354 11437ft 359kts
17-Mar-20 11:58 31.849412 -102.054709 345 9672ft 302kts
17-Mar-20 11:59 31.931327 -102.075222 345 8193ft 297kts
17-Mar-20 12:00 32.007696 -102.094916 345 6723ft 269kts
17-Mar-20 12:02 32.048881 -102.143516 257 5765ft 226kts
17-Mar-20 12:03 32.024332 -102.207816 198 4370ft 220kts
17-Mar-20 12:04 31.977038 -102.207278 174 3294ft 132kts
17-Mar-20 12:05 31.946787 -102.204229 175 2878ft 59kts
17-Mar-20 12:06 31.938783 -102.205245 287 2878ft 8kts
17-Mar-20 12:07 31.939554 -102.207274 323 2878ft 6kts
17-Mar-20 12:08 31.939707 -102.207311 355 2878ft 0kts
17-Mar-20 12:09 31.939707 -102.207311 355 2878ft 0kts
17-Mar-20 12:10 31.939707 -102.207311 355 2878ft 0kts
17-Mar-20 12:11 31.939707 -102.207311 355 2878ft 0kts
17-Mar-20 12:12 31.939707 -102.207311 355 2878ft 0kts
17-Mar-20 12:13 31.939707 -102.207311 355 2878ft 0kts
17-Mar-20 12:14 31.939707 -102.207311 355 2878ft 0kts
17-Mar-20 12:15 31.939707 -102.207311 355 2878ft 0kts
17-Mar-20 12:16 31.939707 -102.207311 355 2878ft 0kts
17-Mar-20 12:17 31.939707 -102.207311 355 2878ft 0kts
17-Mar-20 12:18 31.939707 -102.207311 355 2878ft 0kts
17-Mar-20 12:19 31.939707 -102.207311 355 2878ft 0kts
17-Mar-20 12:19 31.939707 -102.207311 355 2878ft 0kts
17-Mar-20 12:21 31.939707 -102.207311 355 2878ft 0kts

Navigation Log

Ident Type
Flight plan parsing failed, navigation log unavailable